createdAt,value
2017-12-14T00:02:20.857Z,93.40
2017-12-14T00:04:48.872Z,93.30
2017-12-14T00:07:16.872Z,93.50
2017-12-14T00:09:45.644Z,93.50
2017-12-14T00:12:13.668Z,93.50
2017-12-14T00:14:48.068Z,93.60
2017-12-14T00:17:17.004Z,93.50
2017-12-14T00:19:45.015Z,93.40
2017-12-14T00:22:13.792Z,93.50
2017-12-14T00:24:42.076Z,93.30
2017-12-14T00:27:12.856Z,93.10
2017-12-14T00:29:40.864Z,93.10
2017-12-14T00:32:10.644Z,92.60
2017-12-14T00:34:43.420Z,92.60
2017-12-14T00:37:17.740Z,92.40
2017-12-14T00:39:45.744Z,92.40
2017-12-14T00:42:13.748Z,92.50
2017-12-14T00:44:42.668Z,92.40
2017-12-14T00:47:10.671Z,92.60
2017-12-14T00:49:39.444Z,92.60
2017-12-14T00:52:10.668Z,92.60
2017-12-14T00:54:49.986Z,92.40
2017-12-14T00:57:20.944Z,92.30
2017-12-14T00:59:50.952Z,92.30
2017-12-14T01:02:22.424Z,92.30
2017-12-14T01:04:51.387Z,92.20
2017-12-14T01:07:26.612Z,92.20
2017-12-14T01:10:11.148Z,92.20
2017-12-14T01:12:41.831Z,92.40
2017-12-14T01:15:09.831Z,92.40
2017-12-14T01:17:39.591Z,92.60
2017-12-14T01:20:13.419Z,92.50
2017-12-14T01:22:43.420Z,92.70
2017-12-14T01:25:12.476Z,92.80
2017-12-14T01:27:40.494Z,92.70
2017-12-14T01:30:18.454Z,92.70
2017-12-14T01:32:47.395Z,92.80
2017-12-14T01:35:16.363Z,92.90
2017-12-14T01:37:44.363Z,92.90
2017-12-14T01:40:13.371Z,92.90
2017-12-14T01:42:41.359Z,92.90
2017-12-14T01:45:11.104Z,92.80
2017-12-14T01:47:40.015Z,92.80
2017-12-14T01:50:08.023Z,92.80
2017-12-14T01:52:36.783Z,92.70
2017-12-14T01:55:17.647Z,92.70
2017-12-14T01:57:55.598Z,92.70
2017-12-14T02:00:27.811Z,92.70
2017-12-14T02:02:55.810Z,92.70
2017-12-14T02:05:25.571Z,92.70
2017-12-14T02:07:59.187Z,92.70
2017-12-14T02:10:27.187Z,92.60
2017-12-14T02:12:55.957Z,93.00
2017-12-14T02:15:38.191Z,92.90
2017-12-14T02:18:06.951Z,93.10
2017-12-14T02:20:34.947Z,93.10
2017-12-14T02:23:02.960Z,93.20
2017-12-14T02:25:33.994Z,93.40
2017-12-14T02:28:02.494Z,93.50
2017-12-14T02:30:32.023Z,93.50
2017-12-14T02:33:00.786Z,93.70
2017-12-14T02:35:28.819Z,93.70
2017-12-14T02:38:01.722Z,93.80
2017-12-14T02:40:29.728Z,93.90
2017-12-14T02:42:58.499Z,93.90
2017-12-14T02:45:28.483Z,93.90
2017-12-14T02:47:57.495Z,93.90
2017-12-14T02:50:27.490Z,93.90
2017-12-14T02:52:57.426Z,93.90
2017-12-14T02:55:27.327Z,93.90
2017-12-14T02:57:58.991Z,93.90
2017-12-14T03:00:26.986Z,93.90
2017-12-14T03:02:56.963Z,94.00
2017-12-14T03:05:27.730Z,94.00
2017-12-14T03:08:01.314Z,94.00
2017-12-14T03:10:33.695Z,94.00
2017-12-14T03:13:03.730Z,94.00
2017-12-14T03:15:32.502Z,94.00
2017-12-14T03:18:08.138Z,93.90
2017-12-14T03:20:37.110Z,93.80
2017-12-14T03:23:07.034Z,93.80
2017-12-14T03:25:35.818Z,93.60
2017-12-14T03:28:08.586Z,93.60
2017-12-14T03:30:42.977Z,93.40
2017-12-14T03:33:23.706Z,93.40
2017-12-14T03:35:51.726Z,93.30
2017-12-14T03:38:19.730Z,93.30
2017-12-14T03:40:48.708Z,93.40
2017-12-14T03:43:23.535Z,93.40
2017-12-14T03:45:51.523Z,93.50
2017-12-14T03:48:26.326Z,93.50
2017-12-14T03:50:54.316Z,93.60
2017-12-14T03:53:26.598Z,93.60
2017-12-14T03:55:56.598Z,93.70
2017-12-14T03:58:30.834Z,93.90
2017-12-14T04:00:58.870Z,94.00
2017-12-14T04:03:33.486Z,94.20
2017-12-14T04:06:01.498Z,94.20
2017-12-14T04:08:47.914Z,94.20
2017-12-14T04:11:18.601Z,94.30
2017-12-14T04:13:47.594Z,94.30
2017-12-14T04:16:23.946Z,94.40
2017-12-14T04:21:57.979Z,94.30
2017-12-14T04:24:27.894Z,94.40
2017-12-14T04:27:08.422Z,94.40
2017-12-14T04:29:54.401Z,94.30
2017-12-14T04:32:27.758Z,94.50
2017-12-14T04:34:59.299Z,94.30
2017-12-14T04:37:27.318Z,94.20
2017-12-14T04:39:56.086Z,94.20
2017-12-14T04:42:26.082Z,94.20
2017-12-14T04:44:55.098Z,94.10
2017-12-14T04:47:28.696Z,93.90
2017-12-14T04:50:07.539Z,94.30
2017-12-14T04:52:44.230Z,94.40
2017-12-14T04:55:13.162Z,94.40
2017-12-14T04:57:41.935Z,94.30
2017-12-14T05:00:11.854Z,94.20
2017-12-14T05:02:45.522Z,94.00
2017-12-14T05:05:19.434Z,93.80
2017-12-14T05:07:58.614Z,93.60
2017-12-14T05:10:26.610Z,93.50
2017-12-14T05:12:57.306Z,93.30
2017-12-14T05:15:26.299Z,93.20
2017-12-14T05:17:55.079Z,93.00
2017-12-14T05:20:23.074Z,93.00
2017-12-14T05:22:53.078Z,92.80
2017-12-14T05:25:23.696Z,93.00
2017-12-14T05:27:51.698Z,92.90
2017-12-14T05:30:20.666Z,92.90
2017-12-14T05:32:53.526Z,92.90
2017-12-14T05:35:26.426Z,93.00
2017-12-14T05:37:55.406Z,93.30
2017-12-14T05:40:23.558Z,93.50
2017-12-14T05:42:52.414Z,93.60
2017-12-14T05:45:25.979Z,93.00
2017-12-14T05:47:55.202Z,93.00
2017-12-14T05:50:24.242Z,92.70
2017-12-14T05:52:52.242Z,91.60
2017-12-14T05:55:26.034Z,91.90
2017-12-14T05:57:55.947Z,92.20
2017-12-14T06:00:25.894Z,92.30
2017-12-14T06:02:54.266Z,92.50
2017-12-14T06:05:24.154Z,92.70
2017-12-14T06:07:54.077Z,92.30
2017-12-14T06:10:36.615Z,92.10
2017-12-14T06:13:05.606Z,92.20
2017-12-14T06:15:37.751Z,92.20
2017-12-14T06:18:09.506Z,92.00
2017-12-14T06:20:50.742Z,91.90
2017-12-14T06:23:25.706Z,91.30
2017-12-14T06:25:56.750Z,90.70
2017-12-14T06:28:24.766Z,91.00
2017-12-14T06:30:54.522Z,91.70
2017-12-14T06:33:22.534Z,91.70
2017-12-14T06:36:04.242Z,91.60
2017-12-14T06:38:36.561Z,91.10
2017-12-14T06:41:04.606Z,91.10
2017-12-14T06:43:32.670Z,90.30
2017-12-14T06:46:03.152Z,90.80
2017-12-14T06:48:34.368Z,90.60
2017-12-14T06:51:06.526Z,90.60
2017-12-14T06:53:37.579Z,90.40
2017-12-14T06:56:06.569Z,90.30
2017-12-14T06:58:35.618Z,90.30
2017-12-14T07:01:04.402Z,89.80
2017-12-14T07:03:33.169Z,89.00
2017-12-14T07:06:01.170Z,88.90
2017-12-14T07:08:29.185Z,85.90
2017-12-14T07:10:57.181Z,85.90
2017-12-14T07:13:30.861Z,81.40
2017-12-14T07:15:58.857Z,81.30
2017-12-14T07:18:29.569Z,82.60
2017-12-14T07:20:59.603Z,82.50
2017-12-14T07:23:28.565Z,81.70
2017-12-14T07:25:56.565Z,82.90
2017-12-14T07:28:28.505Z,84.50
2017-12-14T07:30:56.518Z,84.30
2017-12-14T07:33:24.557Z,83.80
2017-12-14T07:35:57.949Z,83.50
2017-12-14T07:38:26.913Z,83.50
2017-12-14T07:40:58.496Z,82.00
2017-12-14T07:43:27.412Z,83.10
2017-12-14T07:59:22.756Z,74.40
2017-12-14T08:01:55.697Z,73.40
2017-12-14T08:04:24.633Z,70.80
2017-12-14T08:06:54.656Z,72.00
2017-12-14T08:09:35.457Z,70.50
2017-12-14T08:12:19.081Z,69.60
2017-12-14T08:14:47.097Z,69.60
2017-12-14T08:17:15.101Z,68.30
2017-12-14T08:19:44.069Z,67.40
2017-12-14T08:22:12.093Z,66.90
2017-12-14T08:24:44.289Z,66.90
2017-12-14T08:27:12.305Z,66.90
2017-12-14T08:29:41.192Z,68.90
2017-12-14T08:32:09.189Z,68.40
2017-12-14T08:34:41.533Z,67.50
2017-12-14T08:37:09.542Z,67.40
2017-12-14T08:39:37.545Z,67.20
2017-12-14T08:42:05.572Z,68.30
2017-12-14T08:44:37.468Z,64.60
2017-12-14T08:47:13.232Z,63.90
2017-12-14T08:49:44.985Z,63.80
2017-12-14T08:52:14.919Z,64.20
2017-12-14T08:54:42.929Z,64.80
2017-12-14T08:57:11.696Z,64.70
2017-12-14T08:59:44.048Z,65.90
2017-12-14T09:02:15.684Z,65.90
2017-12-14T09:04:47.452Z,65.40
2017-12-14T09:07:28.756Z,65.10
2017-12-14T09:09:56.788Z,65.80
2017-12-14T09:12:24.780Z,66.20
2017-12-14T09:14:56.324Z,67.30
2017-12-14T09:17:24.334Z,67.50
2017-12-14T09:19:53.999Z,66.70
2017-12-14T09:22:23.660Z,66.70
2017-12-14T09:28:01.972Z,66.80
2017-12-14T09:30:37.956Z,69.00
2017-12-14T09:33:05.968Z,68.90
2017-12-14T09:35:37.508Z,69.90
2017-12-14T09:38:17.876Z,69.70
2017-12-14T09:40:45.889Z,68.40
2017-12-14T09:43:15.639Z,66.30
2017-12-14T09:45:43.660Z,66.30
2017-12-14T09:48:23.336Z,66.70
2017-12-14T09:50:58.064Z,66.70
2017-12-14T09:53:29.328Z,65.30
2017-12-14T09:55:57.332Z,63.50
2017-12-14T09:58:25.340Z,63.30
2017-12-14T10:00:55.241Z,62.00
2017-12-14T10:03:24.000Z,63.00
2017-12-14T10:05:52.916Z,62.90
2017-12-14T10:08:20.919Z,63.40
2017-12-14T10:10:56.864Z,64.90
2017-12-14T10:13:24.872Z,64.40
2017-12-14T10:15:58.600Z,64.80
2017-12-14T10:18:30.576Z,64.90
2017-12-14T10:21:00.584Z,64.80
2017-12-14T10:23:42.664Z,61.40
2017-12-14T10:26:11.587Z,61.40
2017-12-14T10:28:46.312Z,62.70
2017-12-14T10:31:20.172Z,64.10
2017-12-14T10:33:52.008Z,64.50
2017-12-14T10:36:20.016Z,65.10
2017-12-14T10:38:51.420Z,66.20
2017-12-14T10:41:40.352Z,65.60
2017-12-14T10:44:22.311Z,65.70
2017-12-14T10:46:53.051Z,65.40
2017-12-14T10:49:23.025Z,65.40
2017-12-14T10:51:52.964Z,65.80
2017-12-14T10:54:22.960Z,66.00
2017-12-14T10:57:02.300Z,66.00
2017-12-14T10:59:40.299Z,66.90
2017-12-14T11:02:23.928Z,66.80
2017-12-14T11:04:59.063Z,66.90
2017-12-14T11:07:51.064Z,66.80
2017-12-14T11:10:22.655Z,67.20
2017-12-14T11:12:52.580Z,66.60
2017-12-14T11:15:22.575Z,67.40
2017-12-14T11:18:11.204Z,67.00
2017-12-14T11:20:39.204Z,66.50
2017-12-14T11:23:09.130Z,67.60
2017-12-14T11:28:45.590Z,67.60
2017-12-14T11:31:22.587Z,67.30
2017-12-14T11:34:08.819Z,68.30
2017-12-14T11:36:45.143Z,68.10
2017-12-14T11:39:19.763Z,68.10
2017-12-14T11:42:01.087Z,67.60
2017-12-14T11:44:36.191Z,67.40
2017-12-14T11:47:11.815Z,66.70
2017-12-14T11:49:46.547Z,66.80
2017-12-14T11:52:16.479Z,66.90
2017-12-14T12:00:45.023Z,65.70
2017-12-14T12:03:16.651Z,66.80
2017-12-14T12:05:45.671Z,66.70
2017-12-14T12:08:30.353Z,66.50
2017-12-14T12:11:04.631Z,66.30
2017-12-14T12:13:33.611Z,66.30
2017-12-14T12:16:20.601Z,66.10
2017-12-14T12:18:59.723Z,64.70
2017-12-14T12:21:46.795Z,64.70
2017-12-14T12:24:14.803Z,64.60
2017-12-14T12:26:51.307Z,63.70
2017-12-14T12:29:21.231Z,63.60
2017-12-14T12:32:03.799Z,62.90
2017-12-14T12:34:51.315Z,62.00
2017-12-14T12:37:22.003Z,60.50
2017-12-14T12:39:52.007Z,60.50
2017-12-14T12:42:21.740Z,58.80
2017-12-14T12:44:49.743Z,58.80
2017-12-14T12:47:22.595Z,59.50
2017-12-14T12:49:50.603Z,59.50
2017-12-14T12:52:18.603Z,58.30
2017-12-14T12:54:59.434Z,58.30
2017-12-14T12:57:31.751Z,61.10
2017-12-14T13:00:10.242Z,61.10
2017-12-14T13:02:42.127Z,62.40
2017-12-14T13:05:10.155Z,64.10
2017-12-14T13:07:38.163Z,64.90
2017-12-14T13:10:12.059Z,65.60
2017-12-14T13:15:39.626Z,66.20
2017-12-14T13:18:07.630Z,66.80
2017-12-14T13:21:01.671Z,67.00
2017-12-14T13:23:43.739Z,67.50
2017-12-14T13:26:25.527Z,67.60
2017-12-14T13:29:12.435Z,67.00
2017-12-14T13:31:44.799Z,67.00
2017-12-14T13:34:17.553Z,67.00
2017-12-14T13:36:51.671Z,66.30
2017-12-14T13:39:20.442Z,65.80
2017-12-14T13:41:48.439Z,65.80
2017-12-14T13:44:17.432Z,66.10
2017-12-14T13:47:05.803Z,64.50
2017-12-14T13:49:47.919Z,64.80
2017-12-14T13:52:15.911Z,64.60
2017-12-14T13:54:43.911Z,64.10
2017-12-14T13:57:11.926Z,63.20
2017-12-14T14:02:37.106Z,62.40
2017-12-14T14:05:19.324Z,62.80
2017-12-14T14:07:52.495Z,61.10
2017-12-14T14:10:21.462Z,61.10
2017-12-14T14:13:13.454Z,60.40
2017-12-14T14:15:43.499Z,60.10
2017-12-14T14:18:13.267Z,60.40
2017-12-14T14:20:42.027Z,59.30
2017-12-14T14:23:20.803Z,59.30
2017-12-14T14:26:03.339Z,58.80
2017-12-14T14:28:54.955Z,58.20
2017-12-14T14:31:27.238Z,58.70
2017-12-14T14:33:59.122Z,59.00
2017-12-14T14:36:27.127Z,59.20
2017-12-14T14:38:59.990Z,59.20
2017-12-14T14:41:31.207Z,59.80
2017-12-14T14:44:04.771Z,60.10
2017-12-14T14:46:34.691Z,60.00
2017-12-14T14:49:02.719Z,60.40
2017-12-14T14:51:37.682Z,60.90
2017-12-14T14:54:07.641Z,61.80
2017-12-14T14:56:42.154Z,62.10
2017-12-14T15:02:10.346Z,63.30
2017-12-14T15:07:34.281Z,70.60
2017-12-14T15:10:04.038Z,73.80
2017-12-14T15:12:39.530Z,73.80
2017-12-14T15:15:21.826Z,77.60
2017-12-14T15:17:54.158Z,78.20
2017-12-14T15:20:22.154Z,78.10
2017-12-14T15:22:56.017Z,78.80
2017-12-14T15:25:28.090Z,79.30
2017-12-14T15:27:56.094Z,80.00
2017-12-14T15:30:26.085Z,80.90
2017-12-14T15:33:19.998Z,81.40
2017-12-14T15:38:45.806Z,81.80
2017-12-14T15:41:13.818Z,81.70
2017-12-14T15:43:55.226Z,82.00
2017-12-14T15:46:33.325Z,81.90
2017-12-14T15:49:14.725Z,82.20
2017-12-14T15:52:02.329Z,82.30
2017-12-14T15:54:30.349Z,82.60
2017-12-14T15:57:19.669Z,82.80
2017-12-14T15:59:48.606Z,82.70
2017-12-14T16:02:20.241Z,82.70
2017-12-14T16:04:55.877Z,82.40
2017-12-14T16:07:29.697Z,82.20
2017-12-14T16:09:57.733Z,82.10
2017-12-14T16:12:25.733Z,82.10
2017-12-14T16:15:07.689Z,81.90
2017-12-14T16:17:36.465Z,82.20
2017-12-14T16:20:18.081Z,83.30
2017-12-14T16:22:46.089Z,82.60
2017-12-14T16:25:19.997Z,83.10
2017-12-14T16:27:53.589Z,83.60
2017-12-14T16:30:25.573Z,83.70
2017-12-14T16:33:18.469Z,84.00
2017-12-14T16:35:46.505Z,84.20
2017-12-14T16:38:31.917Z,84.50
2017-12-14T16:41:07.997Z,85.10
2017-12-14T16:43:41.701Z,85.00
2017-12-14T16:46:15.409Z,85.00
2017-12-14T16:48:56.638Z,85.10
2017-12-14T16:51:35.713Z,84.70
2017-12-14T16:54:03.705Z,84.60
2017-12-14T16:56:31.714Z,84.60
2017-12-14T16:59:04.441Z,83.60
2017-12-14T17:01:32.445Z,83.60
2017-12-14T17:04:04.797Z,83.50
2017-12-14T17:06:43.269Z,83.50
2017-12-14T17:09:12.205Z,83.70
2017-12-14T17:14:38.564Z,85.10
2017-12-14T17:17:06.601Z,85.10
2017-12-14T17:19:39.145Z,85.70
2017-12-14T17:22:10.949Z,85.60
2017-12-14T17:24:43.609Z,85.80
2017-12-14T17:27:18.825Z,85.50
2017-12-14T17:29:52.685Z,85.30
2017-12-14T17:32:20.694Z,85.30
2017-12-14T17:35:02.798Z,85.90
2017-12-14T17:37:31.697Z,85.40
2017-12-14T17:39:59.704Z,85.50
2017-12-14T17:42:27.705Z,86.40
2017-12-14T17:44:57.385Z,86.20
2017-12-14T17:47:36.201Z,86.40
2017-12-14T17:50:05.096Z,86.40
2017-12-14T17:52:41.345Z,86.50
2017-12-14T17:55:12.276Z,86.30
2017-12-14T17:57:40.268Z,86.00
2017-12-14T18:00:12.826Z,85.80
2017-12-14T18:02:40.785Z,85.70
2017-12-14T18:05:12.325Z,85.40
2017-12-14T18:07:40.336Z,85.40
2017-12-14T18:10:09.228Z,85.70
2017-12-14T18:12:45.492Z,85.40
2017-12-14T18:15:14.397Z,85.30
2017-12-14T18:17:48.904Z,84.60
2017-12-14T18:20:18.792Z,84.60
2017-12-14T18:22:47.717Z,84.50
2017-12-14T18:25:18.745Z,84.90
2017-12-14T18:27:48.476Z,85.60
2017-12-14T18:30:17.424Z,85.60
2017-12-14T18:32:45.432Z,86.30
2017-12-14T18:35:17.760Z,85.80
2017-12-14T18:37:46.789Z,85.80
2017-12-14T18:40:14.831Z,85.70
2017-12-14T18:42:46.113Z,85.70
2017-12-14T18:45:15.930Z,86.40
2017-12-14T18:47:55.340Z,86.40
2017-12-14T18:50:26.477Z,86.40
2017-12-14T18:52:56.604Z,86.70
2017-12-14T18:55:25.849Z,87.20
2017-12-14T18:57:54.881Z,87.50
2017-12-14T19:00:22.904Z,87.80
2017-12-14T19:02:58.784Z,87.80
2017-12-14T19:05:28.512Z,88.10
2017-12-14T19:08:00.484Z,88.00
2017-12-14T19:10:29.493Z,88.20
2017-12-14T19:13:01.628Z,88.20
2017-12-14T19:15:29.644Z,88.60
2017-12-14T19:18:02.172Z,87.80
2017-12-14T19:20:32.204Z,87.80
2017-12-14T19:23:03.444Z,87.90
2017-12-14T19:25:31.482Z,88.20
2017-12-14T19:28:00.413Z,88.30
2017-12-14T19:30:29.424Z,88.60
2017-12-14T19:32:59.440Z,88.60
2017-12-14T19:35:28.208Z,88.40
2017-12-14T19:38:02.746Z,87.90
2017-12-14T19:40:32.668Z,87.90
2017-12-14T19:43:04.084Z,87.40
2017-12-14T19:45:36.660Z,87.50
2017-12-14T19:48:08.357Z,87.60
2017-12-14T19:50:38.128Z,88.10
2017-12-14T19:53:06.147Z,88.00
2017-12-14T19:55:39.591Z,88.60
2017-12-14T19:58:13.380Z,88.60
2017-12-14T20:00:46.120Z,88.70
2017-12-14T20:03:17.932Z,89.00
2017-12-14T20:05:46.936Z,88.90
2017-12-14T20:08:19.424Z,88.60
2017-12-14T20:10:48.399Z,88.60
2017-12-14T20:13:16.416Z,88.60
2017-12-14T20:15:44.425Z,88.70
2017-12-14T20:18:17.640Z,89.50
2017-12-14T20:20:45.659Z,89.10
2017-12-14T20:23:19.200Z,89.20
2017-12-14T20:25:48.176Z,89.60
2017-12-14T20:28:18.088Z,89.40
2017-12-14T20:30:46.115Z,89.40
2017-12-14T20:33:15.864Z,89.20
2017-12-14T20:35:47.907Z,89.10
2017-12-14T20:38:17.870Z,88.90
2017-12-14T20:40:45.888Z,88.70
2017-12-14T20:43:14.848Z,88.60
2017-12-14T20:45:42.868Z,88.30
2017-12-14T20:48:12.800Z,88.10
2017-12-14T20:50:41.792Z,87.90
2017-12-14T20:53:09.795Z,87.70
2017-12-14T20:55:38.568Z,87.50
2017-12-14T20:58:09.896Z,87.50
2017-12-14T21:00:38.704Z,87.50
2017-12-14T21:03:06.712Z,87.40
2017-12-14T21:05:34.735Z,87.40
2017-12-14T21:08:08.391Z,87.30
2017-12-14T21:10:36.411Z,87.30
2017-12-14T21:13:06.399Z,87.40
2017-12-14T21:15:37.726Z,87.30
2017-12-14T21:18:05.739Z,87.20
2017-12-14T21:20:39.142Z,87.30
2017-12-14T21:23:07.911Z,87.20
2017-12-14T21:25:36.886Z,87.10
2017-12-14T21:28:08.247Z,87.30
2017-12-14T21:30:38.427Z,87.10
2017-12-14T21:33:07.377Z,86.80
2017-12-14T21:35:37.402Z,86.80
2017-12-14T21:38:10.798Z,86.70
2017-12-14T21:40:47.138Z,86.70
2017-12-14T21:43:16.135Z,86.50
2017-12-14T21:45:44.132Z,86.60
2017-12-14T21:48:17.618Z,86.60
2017-12-14T21:50:46.518Z,86.60
2017-12-14T21:53:19.110Z,86.80
2017-12-14T21:55:47.142Z,86.70
2017-12-14T21:58:15.150Z,86.90
2017-12-14T22:00:54.702Z,86.80
2017-12-14T22:03:27.878Z,86.90
2017-12-14T22:06:15.006Z,86.90
2017-12-14T22:08:43.019Z,86.80
2017-12-14T22:11:12.130Z,86.90
2017-12-14T22:13:43.950Z,87.10
2017-12-14T22:16:11.962Z,87.10
2017-12-14T22:18:44.490Z,87.40
2017-12-14T22:21:16.018Z,87.50
2017-12-14T22:23:44.782Z,88.00
2017-12-14T22:26:15.342Z,88.70
2017-12-14T22:28:43.375Z,88.60
2017-12-14T22:31:12.782Z,89.50
2017-12-14T22:33:41.554Z,90.00
2017-12-14T22:36:09.570Z,89.80
2017-12-14T22:38:48.726Z,90.00
2017-12-14T22:41:16.730Z,90.00
2017-12-14T22:43:44.770Z,90.00
2017-12-14T22:46:16.434Z,90.00
2017-12-14T22:48:48.015Z,90.00
2017-12-14T22:51:16.998Z,90.10
2017-12-14T22:53:45.954Z,90.00
2017-12-14T22:56:13.966Z,90.10
2017-12-14T22:58:44.639Z,90.20
2017-12-14T23:01:12.638Z,90.20
2017-12-14T23:03:42.650Z,90.20
2017-12-14T23:06:16.654Z,90.40
2017-12-14T23:08:45.662Z,90.40
2017-12-14T23:11:17.434Z,90.30
2017-12-14T23:13:46.386Z,90.30
2017-12-14T23:16:15.390Z,90.30
2017-12-14T23:18:44.334Z,90.20
2017-12-14T23:21:13.129Z,90.20
2017-12-14T23:23:41.930Z,90.20
2017-12-14T23:26:15.936Z,90.20
2017-12-14T23:28:49.565Z,90.30
2017-12-14T23:31:17.598Z,90.50
2017-12-14T23:33:47.237Z,90.50
2017-12-14T23:36:20.462Z,90.60
2017-12-14T23:38:50.482Z,90.60
2017-12-14T23:41:19.462Z,90.60
2017-12-14T23:43:47.498Z,90.60
2017-12-14T23:46:16.410Z,90.60
2017-12-14T23:48:44.410Z,90.60
2017-12-14T23:51:12.425Z,90.60
2017-12-14T23:53:44.802Z,90.60
2017-12-14T23:56:13.854Z,90.60
2017-12-14T23:58:42.382Z,90.60
